Lady Jane — PC9348 — position and weather

sailwx.info

Track history (hours):
 
Tides and Currents Weather Stations Pressure Air Temp Water Temp Dewpoint Dewpoint Depression Visibility Wind Speed Wind Dir Waves Ship Positions

Lady Jane

Last reported at 2017-Oct-17 13:05 UTC. Time now 2017-Nov-25 07:42 UTC.
Position N 37°04' W 008°17'.
Warning: this ship's position is 38 days out of date.

Length 10 m.

Type: Pleasure craft. MMSI: 244020749.

Date/timePositionNaut miles runAvg speedWind from/ knotsBaromVisibWave heightAir tempDewpointWater temp
2017-Oct-17 13:05N 37°04' W 008°17'0 2.5
2017-Oct-17 12:58N 37°04' W 008°18'1 2.5
2017-Oct-17 12:28N 37°04' W 008°19'8 3.0
2017-Oct-17 09:56N 37°05' W 008°29'3 4.4
2017-Oct-17 09:21N 37°06' W 008°32'1 0.0
2017-Oct-15 12:11N 37°07' W 008°31'1 2.6
2017-Oct-15 11:51N 37°08' W 008°32'0 0.2
2017-Oct-15 11:25N 37°08' W 008°32'  
2017-Oct-13 05:23N 37°48' W 008°54'2 3.9
2017-Oct-13 04:54N 37°50' W 008°54'2 4.1
2017-Oct-13 04:30N 37°52' W 008°54'2 4.6
2017-Oct-13 04:00N 37°54' W 008°53'2 4.4
2017-Oct-13 03:30N 37°56' W 008°53'1 0.0
2017-Oct-11 20:54N 37°57' W 008°52'0 0.0
2017-Oct-11 20:30N 37°57' W 008°52'0 0.0
2017-Oct-11 20:00N 37°57' W 008°52'0 0.0
2017-Oct-11 19:30N 37°57' W 008°52'0 0.0
2017-Oct-11 19:00N 37°57' W 008°52'1 1.5
2017-Oct-11 18:30N 37°57' W 008°53'1 2.2
2017-Oct-11 18:00N 37°57' W 008°54'2 3.6
2017-Oct-11 17:30N 37°59' W 008°54'2 3.6
2017-Oct-11 17:00N 38°01' W 008°53'29 1.0
2017-Oct-10 10:38N 38°30' W 008°54'1 4.7
2017-Oct-10 10:28N 38°29' W 008°53'3 5.1
2017-Oct-10 09:58N 38°28' W 008°51'0 0.3
2017-Oct-10 09:22N 38°27' W 008°51'0 0.0
2017-Oct-09 11:45N 38°27' W 008°51'0 0.0
2017-Oct-09 11:30N 38°27' W 008°51'0 0.0
2017-Oct-08 13:53N 38°27' W 008°51'4 4.5
2017-Oct-08 12:59N 38°29' W 008°55'3 5.7
2017-Oct-08 12:30N 38°28' W 008°58'2 4.2
2017-Oct-08 12:00N 38°26' W 009°00'2 3.7
2017-Oct-08 11:29N 38°26' W 009°02'2 3.5
2017-Oct-08 10:58N 38°25' W 009°05'  
Track history (hours):
 
Tides and Currents Weather Stations Pressure Air Temp Water Temp Dewpoint Dewpoint Depression Visibility Wind Speed Wind Dir Waves Ship Positions

Lady Jane

Last reported at 2017-Oct-17 13:05 UTC. Time now 2017-Nov-25 07:42 UTC.
Position N 37°04' W 008°17'.
Warning: this ship's position is 38 days out of date.

Length 10 m.

Type: Pleasure craft. MMSI: 244020749.

Date/timePositionNaut miles runAvg speedWind from/ knotsBaromVisibWave heightAir tempDewpointWater temp
2017-Oct-17 13:05N 37°04' W 008°17'0 2.5
2017-Oct-17 12:58N 37°04' W 008°18'1 2.5
2017-Oct-17 12:28N 37°04' W 008°19'8 3.0
2017-Oct-17 09:56N 37°05' W 008°29'3 4.4
2017-Oct-17 09:21N 37°06' W 008°32'1 0.0
2017-Oct-15 12:11N 37°07' W 008°31'1 2.6
2017-Oct-15 11:51N 37°08' W 008°32'0 0.2
2017-Oct-15 11:25N 37°08' W 008°32'  
2017-Oct-13 05:23N 37°48' W 008°54'2 3.9
2017-Oct-13 04:54N 37°50' W 008°54'2 4.1
2017-Oct-13 04:30N 37°52' W 008°54'2 4.6
2017-Oct-13 04:00N 37°54' W 008°53'2 4.4
2017-Oct-13 03:30N 37°56' W 008°53'1 0.0
2017-Oct-11 20:54N 37°57' W 008°52'0 0.0
2017-Oct-11 20:30N 37°57' W 008°52'0 0.0
2017-Oct-11 20:00N 37°57' W 008°52'0 0.0
2017-Oct-11 19:30N 37°57' W 008°52'0 0.0
2017-Oct-11 19:00N 37°57' W 008°52'1 1.5
2017-Oct-11 18:30N 37°57' W 008°53'1 2.2
2017-Oct-11 18:00N 37°57' W 008°54'2 3.6
2017-Oct-11 17:30N 37°59' W 008°54'2 3.6
2017-Oct-11 17:00N 38°01' W 008°53'29 1.0
2017-Oct-10 10:38N 38°30' W 008°54'1 4.7
2017-Oct-10 10:28N 38°29' W 008°53'3 5.1
2017-Oct-10 09:58N 38°28' W 008°51'0 0.3
2017-Oct-10 09:22N 38°27' W 008°51'0 0.0
2017-Oct-09 11:45N 38°27' W 008°51'0 0.0
2017-Oct-09 11:30N 38°27' W 008°51'0 0.0
2017-Oct-08 13:53N 38°27' W 008°51'4 4.5
2017-Oct-08 12:59N 38°29' W 008°55'3 5.7
2017-Oct-08 12:30N 38°28' W 008°58'2 4.2
2017-Oct-08 12:00N 38°26' W 009°00'2 3.7
2017-Oct-08 11:29N 38°26' W 009°02'2 3.5
2017-Oct-08 10:58N 38°25' W 009°05'  

Dump ship's entire track history